createdAt,value
2019-04-28T11:13:03.100Z,25.40
2019-04-28T11:15:49.475Z,25.30
2019-04-28T11:18:35.883Z,25.00
2019-04-28T11:21:22.113Z,24.80
2019-04-28T11:24:08.483Z,24.80
2019-04-28T11:26:55.084Z,24.60
2019-04-28T11:29:41.342Z,24.60
2019-04-28T11:32:27.619Z,24.80
2019-04-28T11:35:26.229Z,24.70
2019-04-28T11:38:12.382Z,24.80
2019-04-28T11:40:58.850Z,24.60
2019-04-28T11:43:45.299Z,24.70
2019-04-28T11:46:31.571Z,24.80
2019-04-28T11:49:18.181Z,24.90
2019-04-28T11:52:05.503Z,24.90
2019-04-28T11:54:51.881Z,24.70
2019-04-28T11:57:38.406Z,24.90
2019-04-28T12:00:28.432Z,25.00
2019-04-28T12:03:14.565Z,25.00
2019-04-28T12:06:00.979Z,25.20
2019-04-28T12:08:49.191Z,25.30
2019-04-28T12:11:38.564Z,25.40
2019-04-28T12:14:36.028Z,25.20
2019-04-28T12:17:50.755Z,25.20
2019-04-28T12:20:37.181Z,25.10
2019-04-28T12:23:23.578Z,24.90
2019-04-28T12:26:09.461Z,24.80
2019-04-28T12:28:55.761Z,24.80
2019-04-28T12:31:42.247Z,24.80
2019-04-28T12:34:28.482Z,24.90
2019-04-28T12:37:14.870Z,24.80
2019-04-28T12:40:01.199Z,24.40
2019-04-28T12:42:47.639Z,24.20
2019-04-28T12:45:35.314Z,23.90
2019-04-28T12:48:21.400Z,23.50
2019-04-28T12:51:07.815Z,23.20
2019-04-28T12:53:57.155Z,23.20
2019-04-28T12:56:43.287Z,23.10
2019-04-28T12:59:35.363Z,23.10
2019-04-28T13:02:39.139Z,23.40
2019-04-28T13:05:25.198Z,24.30
2019-04-28T13:08:11.716Z,25.00
2019-04-28T13:10:58.131Z,25.20
2019-04-28T13:13:46.878Z,25.10
2019-04-28T13:16:32.741Z,25.10
2019-04-28T13:19:18.986Z,25.20
2019-04-28T13:22:05.593Z,25.20
2019-04-28T13:24:52.497Z,25.10
2019-04-28T13:27:38.633Z,24.80
2019-04-28T13:30:24.511Z,24.50
2019-04-28T13:33:10.913Z,23.70
2019-04-28T13:35:57.364Z,22.60
2019-04-28T13:38:43.880Z,22.00
2019-04-28T13:41:29.975Z,21.00
2019-04-28T13:44:35.797Z,20.00
2019-04-28T13:47:21.787Z,19.30
2019-04-28T13:50:20.905Z,18.90
2019-04-28T13:53:07.679Z,18.60
2019-04-28T13:56:00.785Z,19.20
2019-04-28T13:58:55.683Z,19.80
2019-04-28T14:02:13.710Z,20.20
2019-04-28T14:05:25.247Z,19.60
2019-04-28T14:08:11.547Z,18.80
2019-04-28T14:10:58.036Z,18.50
2019-04-28T14:13:44.007Z,18.30
2019-04-28T14:16:30.372Z,17.90
2019-04-28T14:19:16.975Z,17.60
2019-04-28T14:22:03.238Z,17.10
2019-04-28T14:24:49.576Z,17.30
2019-04-28T14:27:36.671Z,17.30
2019-04-28T14:30:22.448Z,16.80
2019-04-28T14:33:09.007Z,16.50
2019-04-28T15:09:44.203Z,19.50
2019-04-28T15:12:31.633Z,21.00
2019-04-28T15:15:19.973Z,21.00
2019-04-28T15:18:05.899Z,21.10
2019-04-28T15:20:52.353Z,21.00
2019-04-28T15:23:38.697Z,19.50
